createdAt,value
2019-03-12T00:00:51.223Z,4.10
2019-03-12T00:03:18.166Z,3.88
2019-03-12T00:05:44.862Z,3.97
2019-03-12T00:08:14.551Z,3.86
2019-03-12T00:10:41.192Z,3.78
2019-03-12T00:13:08.353Z,4.06
2019-03-12T00:15:35.223Z,3.95
2019-03-12T00:18:01.779Z,3.79
2019-03-12T00:20:28.385Z,4.09
2019-03-12T00:22:55.075Z,4.04
2019-03-12T00:25:21.644Z,3.80
2019-03-12T00:27:48.466Z,4.08
2019-03-12T00:30:15.502Z,3.93
2019-03-12T00:32:42.180Z,3.70
2019-03-12T00:35:09.357Z,3.93
2019-03-12T00:37:36.249Z,3.65
2019-03-12T00:40:06.141Z,3.63
2019-03-12T00:42:32.767Z,3.80
2019-03-12T00:44:59.324Z,3.68
2019-03-12T00:47:25.896Z,3.57
2019-03-12T00:49:53.657Z,3.58
2019-03-12T00:52:20.259Z,3.61
2019-03-12T00:54:48.075Z,3.49
2019-03-12T00:57:14.748Z,3.42
2019-03-12T00:59:41.481Z,3.47
2019-03-12T01:02:08.024Z,3.36
2019-03-12T01:04:34.579Z,3.44
2019-03-12T01:07:01.176Z,3.39
2019-03-12T01:09:27.787Z,3.32
2019-03-12T01:11:54.464Z,3.35
2019-03-12T01:14:21.328Z,3.43
2019-03-12T01:16:47.863Z,3.40
2019-03-12T01:19:14.730Z,3.43
2019-03-12T01:21:41.521Z,3.52
2019-03-12T01:24:08.150Z,3.35
2019-03-12T01:26:34.740Z,3.32
2019-03-12T01:29:01.401Z,3.34
2019-03-12T01:31:31.389Z,3.33
2019-03-12T01:33:58.173Z,3.27
2019-03-12T01:36:24.772Z,3.34
2019-03-12T01:38:51.436Z,3.31
2019-03-12T01:41:18.053Z,3.11
2019-03-12T01:43:45.101Z,3.02
2019-03-12T01:46:11.806Z,2.91
2019-03-12T01:48:38.440Z,3.09
2019-03-12T01:51:05.086Z,3.12
2019-03-12T01:53:31.646Z,3.15
2019-03-12T01:55:58.242Z,3.01
2019-03-12T01:58:24.819Z,2.94
2019-03-12T02:00:51.484Z,2.78
2019-03-12T02:03:18.226Z,2.79
2019-03-12T02:05:44.908Z,3.01
2019-03-12T02:08:11.743Z,2.90
2019-03-12T02:10:38.373Z,2.71
2019-03-12T02:13:05.125Z,2.85
2019-03-12T02:15:31.847Z,2.78
2019-03-12T02:17:58.510Z,2.78
2019-03-12T02:20:25.116Z,2.52
2019-03-12T02:22:51.679Z,2.66
2019-03-12T02:25:18.534Z,2.53
2019-03-12T02:27:45.241Z,2.56
2019-03-12T02:30:17.760Z,2.66
2019-03-12T02:32:45.072Z,2.49
2019-03-12T02:35:12.089Z,2.59
2019-03-12T02:37:39.037Z,2.52
2019-03-12T02:40:09.336Z,2.62
2019-03-12T02:42:35.993Z,2.46
2019-03-12T02:45:07.618Z,2.67
2019-03-12T02:47:34.371Z,2.61
2019-03-12T02:50:01.303Z,2.54
2019-03-12T02:52:28.044Z,2.49
2019-03-12T02:54:54.621Z,2.38
2019-03-12T02:57:21.201Z,2.35
2019-03-12T02:59:47.851Z,2.31
2019-03-12T03:02:14.490Z,2.37
2019-03-12T03:04:41.176Z,2.26
2019-03-12T03:07:09.657Z,2.28
2019-03-12T03:09:36.323Z,2.27
2019-03-12T03:12:03.085Z,2.12
2019-03-12T03:14:34.598Z,2.23
2019-03-12T03:17:01.244Z,2.20
2019-03-12T03:19:29.126Z,2.37
2019-03-12T03:21:55.749Z,2.04
2019-03-12T03:24:22.482Z,2.02
2019-03-12T03:26:49.215Z,2.12
2019-03-12T03:29:17.543Z,2.18
2019-03-12T03:31:44.204Z,2.08
2019-03-12T03:34:11.061Z,2.18
2019-03-12T03:36:37.622Z,2.14
2019-03-12T03:39:05.179Z,2.17
2019-03-12T03:41:34.758Z,2.24
2019-03-12T03:44:00.956Z,2.29
2019-03-12T03:46:27.913Z,2.32
2019-03-12T03:48:54.640Z,2.06
2019-03-12T03:51:21.282Z,2.06
2019-03-12T03:53:47.933Z,2.18
2019-03-12T03:56:14.822Z,2.34
2019-03-12T03:58:41.380Z,2.11
2019-03-12T04:01:08.166Z,2.18
2019-03-12T04:03:35.008Z,2.21
2019-03-12T04:06:01.903Z,2.02
2019-03-12T04:08:28.504Z,2.02
2019-03-12T04:10:55.095Z,1.89
2019-03-12T04:13:21.806Z,1.95
2019-03-12T04:15:48.381Z,1.81
2019-03-12T04:18:15.295Z,1.78
2019-03-12T04:20:41.847Z,1.95
2019-03-12T04:23:08.528Z,2.03
2019-03-12T04:25:35.090Z,1.69
2019-03-12T04:28:01.905Z,2.03
2019-03-12T04:30:28.609Z,1.87
2019-03-12T04:32:55.350Z,1.94
2019-03-12T04:35:27.428Z,1.85
2019-03-12T04:37:54.216Z,2.04
2019-03-12T04:40:21.107Z,2.04
2019-03-12T04:42:48.029Z,1.84
2019-03-12T04:45:15.958Z,1.93
2019-03-12T04:47:42.872Z,1.88
2019-03-12T04:50:10.025Z,1.84
2019-03-12T04:52:36.587Z,2.17
2019-03-12T04:55:09.714Z,2.09
2019-03-12T04:57:36.273Z,2.04
2019-03-12T05:00:08.619Z,1.94
2019-03-12T05:02:35.158Z,2.01
2019-03-12T05:05:03.472Z,1.99
2019-03-12T05:07:30.181Z,2.05
2019-03-12T05:09:56.950Z,2.28
2019-03-12T05:12:26.451Z,2.16
2019-03-12T05:14:53.031Z,2.30
2019-03-12T05:17:19.951Z,2.07
2019-03-12T05:19:46.788Z,2.07
2019-03-12T05:22:14.963Z,2.15
2019-03-12T05:24:41.593Z,2.05
2019-03-12T05:27:08.258Z,2.11
2019-03-12T05:29:34.942Z,2.18
2019-03-12T05:32:01.685Z,2.18
2019-03-12T05:34:28.257Z,2.02
2019-03-12T05:36:54.920Z,2.10
2019-03-12T05:39:21.476Z,1.83
2019-03-12T05:41:48.366Z,1.94
2019-03-12T05:44:15.138Z,2.08
2019-03-12T05:46:43.215Z,2.18
2019-03-12T05:49:09.791Z,2.18
2019-03-12T05:51:37.713Z,2.00
2019-03-12T05:54:04.281Z,1.99
2019-03-12T05:56:30.888Z,2.18
2019-03-12T05:58:57.727Z,2.15
2019-03-12T06:01:24.360Z,1.97
2019-03-12T06:03:51.169Z,2.01
2019-03-12T06:06:17.887Z,2.01
2019-03-12T06:08:44.434Z,2.36
2019-03-12T06:11:11.147Z,2.38
2019-03-12T06:13:37.925Z,2.27
2019-03-12T06:16:04.825Z,2.37
2019-03-12T06:18:31.592Z,2.51
2019-03-12T06:20:58.377Z,2.32
2019-03-12T06:23:24.938Z,2.48
2019-03-12T06:25:51.534Z,2.53
2019-03-12T06:28:18.215Z,2.49
2019-03-12T06:30:46.854Z,2.49
2019-03-12T06:33:15.611Z,2.37
2019-03-12T06:35:44.109Z,2.35
2019-03-12T06:38:12.605Z,2.41
2019-03-12T06:40:41.230Z,2.40
2019-03-12T06:43:09.779Z,2.63
2019-03-12T06:45:38.251Z,2.43
2019-03-12T06:48:06.979Z,2.57
2019-03-12T06:50:35.601Z,2.44
2019-03-12T06:53:04.261Z,2.11
2019-03-12T06:55:32.965Z,2.38
2019-03-12T06:58:06.344Z,2.30
2019-03-12T07:00:34.970Z,2.66
2019-03-12T07:03:03.556Z,2.83
2019-03-12T07:05:32.140Z,2.74
2019-03-12T07:08:00.767Z,2.82
2019-03-12T07:10:29.306Z,2.58
2019-03-12T07:12:57.810Z,2.83
2019-03-12T07:15:26.363Z,2.98
2019-03-12T07:17:54.847Z,2.79
2019-03-12T07:20:23.360Z,2.89
2019-03-12T07:22:51.996Z,2.98
2019-03-12T07:25:20.677Z,3.10
2019-03-12T07:27:49.261Z,2.84
2019-03-12T07:30:17.951Z,3.17
2019-03-12T07:32:46.499Z,3.32
2019-03-12T07:35:15.134Z,3.22
2019-03-12T07:37:43.691Z,3.24
2019-03-12T07:40:12.372Z,3.32
2019-03-12T07:42:40.944Z,2.93
2019-03-12T07:45:10.422Z,3.23
2019-03-12T07:47:41.834Z,3.52
2019-03-12T07:50:10.443Z,3.20
2019-03-12T07:52:39.102Z,3.42
2019-03-12T07:55:07.910Z,3.43
2019-03-12T07:57:36.426Z,3.21
2019-03-12T08:00:10.741Z,3.32
2019-03-12T08:02:39.193Z,3.33
2019-03-12T08:05:08.437Z,3.87
2019-03-12T08:07:37.008Z,3.92
2019-03-12T08:10:10.608Z,3.93
2019-03-12T08:12:39.203Z,3.72
2019-03-12T08:15:22.675Z,3.95
2019-03-12T08:17:42.723Z,3.92
2019-03-12T08:20:11.612Z,4.26
2019-03-12T08:22:40.162Z,4.00
2019-03-12T08:25:09.780Z,3.72
2019-03-12T08:27:38.253Z,3.70
2019-03-12T08:30:11.363Z,3.79
2019-03-12T08:32:39.842Z,4.07
2019-03-12T08:35:08.706Z,4.28
2019-03-12T08:40:52.457Z,4.13
2019-03-12T08:43:13.531Z,3.74
2019-03-12T08:45:45.355Z,3.80
2019-03-12T08:48:13.104Z,3.77
2019-03-12T08:50:40.190Z,3.95
2019-03-12T08:53:08.929Z,3.79
2019-03-12T08:55:37.413Z,3.96
2019-03-12T08:58:06.089Z,3.54
2019-03-12T09:00:34.904Z,3.39
2019-03-12T09:03:59.336Z,3.36
2019-03-12T09:06:27.812Z,3.29
2019-03-12T09:08:56.399Z,3.43
2019-03-12T09:11:24.894Z,3.43
2019-03-12T09:14:51.089Z,3.49
2019-03-12T09:17:20.596Z,3.86
2019-03-12T09:19:51.023Z,3.36
2019-03-12T09:22:19.696Z,3.83
2019-03-12T09:24:49.322Z,3.86
2019-03-12T09:27:18.035Z,3.55
2019-03-12T09:29:46.590Z,3.38
2019-03-12T09:32:15.216Z,3.77
2019-03-12T09:34:41.924Z,3.65
2019-03-12T09:37:10.517Z,3.79
2019-03-12T09:40:36.229Z,3.84
2019-03-12T09:43:04.898Z,3.64
2019-03-12T09:45:33.520Z,3.43
2019-03-12T09:48:02.175Z,3.38
2019-03-12T09:50:30.632Z,3.37
2019-03-12T09:52:59.205Z,3.25
2019-03-12T09:55:27.989Z,3.06
2019-03-12T09:57:56.565Z,3.37
2019-03-12T10:00:25.257Z,3.16
2019-03-12T10:02:53.848Z,3.00
2019-03-12T10:05:22.366Z,3.06
2019-03-12T10:07:50.850Z,3.38
2019-03-12T10:10:19.512Z,3.34
2019-03-12T10:12:48.487Z,3.51
2019-03-12T10:15:17.055Z,3.52
2019-03-12T10:17:45.617Z,3.61
2019-03-12T10:20:14.206Z,3.50
2019-03-12T10:22:42.883Z,3.54
2019-03-12T10:25:11.699Z,3.75
2019-03-12T10:27:40.174Z,4.07
2019-03-12T10:30:11.243Z,4.11
2019-03-12T10:32:39.816Z,4.08
2019-03-12T10:35:08.771Z,3.91
2019-03-12T10:37:37.343Z,4.07
2019-03-12T10:40:10.700Z,3.76
2019-03-12T10:42:45.287Z,3.42
2019-03-12T10:45:14.090Z,3.60
2019-03-12T10:47:43.785Z,3.56
2019-03-12T10:50:10.838Z,3.71
2019-03-12T10:52:37.871Z,4.03
2019-03-12T10:55:12.877Z,4.34
2019-03-12T10:57:35.246Z,4.51
2019-03-12T11:00:07.668Z,4.87
2019-03-12T11:02:36.068Z,5.06
2019-03-12T11:05:04.992Z,4.69
2019-03-12T11:07:31.842Z,4.82
2019-03-12T11:09:58.450Z,4.70
2019-03-12T11:12:25.020Z,4.75
2019-03-12T11:14:51.618Z,5.12
2019-03-12T11:17:18.272Z,5.39
2019-03-12T11:19:44.935Z,5.38
2019-03-12T11:22:13.617Z,4.96
2019-03-12T11:24:40.461Z,4.97
2019-03-12T11:27:07.070Z,5.46
2019-03-12T11:29:33.978Z,5.48
2019-03-12T11:32:00.546Z,5.33
2019-03-12T11:34:27.347Z,5.19
2019-03-12T11:36:54.010Z,4.90
2019-03-12T11:39:20.656Z,4.45
2019-03-12T11:41:47.683Z,4.40
2019-03-12T11:44:14.367Z,4.38
2019-03-12T11:46:45.335Z,4.54
2019-03-12T11:49:10.733Z,4.78
2019-03-12T11:51:37.322Z,4.62
2019-03-12T11:54:04.055Z,4.65
2019-03-12T11:56:30.879Z,5.01
2019-03-12T11:58:57.547Z,5.31
2019-03-12T12:01:24.268Z,5.11
2019-03-12T12:03:50.933Z,5.30
2019-03-12T12:06:17.698Z,4.92
2019-03-12T12:08:44.503Z,5.19
2019-03-12T12:11:11.524Z,5.28
2019-03-12T12:13:38.237Z,5.51
2019-03-12T12:16:05.227Z,5.52
2019-03-12T12:18:31.866Z,5.06
2019-03-12T12:20:58.498Z,4.99
2019-03-12T12:23:25.163Z,5.00
2019-03-12T12:25:51.967Z,4.92
2019-03-12T12:28:18.610Z,4.98
2019-03-12T12:30:45.366Z,5.05
2019-03-12T12:33:12.188Z,5.61
2019-03-12T12:35:38.827Z,5.67
2019-03-12T12:38:05.506Z,5.76
2019-03-12T12:40:32.286Z,5.69
2019-03-12T12:42:59.074Z,5.77
2019-03-12T12:45:29.532Z,5.55
2019-03-12T12:47:56.404Z,5.47
2019-03-12T12:50:23.291Z,5.84
2019-03-12T12:52:49.846Z,5.64
2019-03-12T12:55:16.703Z,5.81
2019-03-12T12:57:43.433Z,5.81
2019-03-12T13:00:15.323Z,6.01
2019-03-12T13:02:42.184Z,6.05
2019-03-12T13:05:09.053Z,6.28
2019-03-12T13:07:36.735Z,6.42
2019-03-12T13:10:09.066Z,6.61
2019-03-12T13:12:35.705Z,6.63
2019-03-12T13:15:06.756Z,6.50
2019-03-12T13:17:33.325Z,6.18
2019-03-12T13:19:59.886Z,6.16
2019-03-12T13:22:26.689Z,6.42
2019-03-12T13:24:53.274Z,6.30
2019-03-12T13:27:20.048Z,6.18
2019-03-12T13:30:42.860Z,6.42
2019-03-12T13:33:09.775Z,6.48
2019-03-12T13:35:36.354Z,6.29
2019-03-12T13:38:03.219Z,6.05
2019-03-12T13:40:30.072Z,6.51
2019-03-12T13:42:57.926Z,6.52
2019-03-12T13:45:27.852Z,6.48
2019-03-12T13:47:54.824Z,6.80
2019-03-12T13:50:21.586Z,6.49
2019-03-12T13:52:48.596Z,6.32
2019-03-12T13:55:16.156Z,6.61
2019-03-12T13:57:43.296Z,6.88
2019-03-12T14:00:15.552Z,6.60
2019-03-12T14:02:43.156Z,6.79
2019-03-12T14:05:10.369Z,6.68
2019-03-12T14:07:37.274Z,6.28
2019-03-12T14:10:09.563Z,6.30
2019-03-12T14:12:36.244Z,6.64
2019-03-12T14:15:09.772Z,6.98
2019-03-12T14:17:36.653Z,7.05
2019-03-12T14:20:08.911Z,6.80
2019-03-12T14:22:35.501Z,6.47
2019-03-12T14:25:05.789Z,6.80
2019-03-12T14:27:32.430Z,6.84
2019-03-12T14:29:59.210Z,6.98
2019-03-12T14:32:25.992Z,7.01
2019-03-12T14:34:55.880Z,6.76
2019-03-12T14:37:22.477Z,6.53
2019-03-12T14:39:49.160Z,7.19
2019-03-12T14:42:16.126Z,7.56
2019-03-12T14:44:43.911Z,7.45
2019-03-12T14:47:10.677Z,7.43
2019-03-12T14:49:37.396Z,7.00
2019-03-12T14:52:08.252Z,7.39
2019-03-12T14:54:34.930Z,6.93
2019-03-12T14:57:01.628Z,6.61
2019-03-12T14:59:28.526Z,6.17
2019-03-12T15:01:55.177Z,6.15
2019-03-12T15:04:23.220Z,6.02
2019-03-12T15:06:50.143Z,5.89
2019-03-12T15:09:17.048Z,6.05
2019-03-12T15:13:00.347Z,6.06
2019-03-12T15:15:26.942Z,6.12
2019-03-12T15:17:53.539Z,5.74
2019-03-12T15:20:20.121Z,5.80
2019-03-12T15:22:46.794Z,5.73
2019-03-12T15:25:13.745Z,5.66
2019-03-12T15:27:40.651Z,5.97
2019-03-12T15:30:12.973Z,5.82
2019-03-12T15:32:39.752Z,5.81
2019-03-12T15:35:06.820Z,5.76
2019-03-12T15:37:35.467Z,5.52
2019-03-12T15:40:06.970Z,5.95
2019-03-12T15:42:33.625Z,5.72
2019-03-12T15:45:00.368Z,5.56
2019-03-12T15:47:26.975Z,5.61
2019-03-12T15:49:53.549Z,5.91
2019-03-12T15:52:20.174Z,5.76
2019-03-12T15:54:46.742Z,5.85
2019-03-12T15:57:13.388Z,6.04
2019-03-12T15:59:40.061Z,5.73
2019-03-12T16:02:06.742Z,5.87
2019-03-12T16:04:33.433Z,5.81
2019-03-12T16:07:01.727Z,5.21
2019-03-12T16:09:28.671Z,5.38
2019-03-12T16:11:55.337Z,5.21
2019-03-12T16:14:22.075Z,5.40
2019-03-12T16:16:50.705Z,5.37
2019-03-12T16:19:17.733Z,5.16
2019-03-12T16:21:44.541Z,5.16
2019-03-12T16:24:16.316Z,5.24
2019-03-12T16:26:43.024Z,5.30
2019-03-12T16:29:09.675Z,4.88
2019-03-12T16:31:36.267Z,5.12
2019-03-12T16:34:03.044Z,5.10
2019-03-12T16:36:29.680Z,5.02
2019-03-12T16:38:58.213Z,5.03
2019-03-12T16:41:24.893Z,4.75
2019-03-12T16:43:51.604Z,4.71
2019-03-12T16:46:18.312Z,4.82
2019-03-12T16:48:49.074Z,4.69
2019-03-12T16:51:15.981Z,4.53
2019-03-12T16:53:42.905Z,4.63
2019-03-12T16:56:09.640Z,4.52
2019-03-12T16:58:36.399Z,4.65
2019-03-12T17:01:03.401Z,4.59
2019-03-12T17:03:30.115Z,4.62
2019-03-12T17:05:58.172Z,4.53
2019-03-12T17:08:28.717Z,4.40
2019-03-12T17:11:02.469Z,4.31
2019-03-12T17:13:26.032Z,4.25
2019-03-12T17:15:55.533Z,4.16
2019-03-12T17:18:22.296Z,4.11
2019-03-12T17:20:49.496Z,4.00
2019-03-12T17:23:21.140Z,4.04
2019-03-12T17:25:48.091Z,3.94
2019-03-12T17:28:15.049Z,3.84
2019-03-12T17:30:41.863Z,3.78
2019-03-12T17:33:11.456Z,3.65
2019-03-12T17:35:41.274Z,3.53
2019-03-12T17:38:08.197Z,3.40
2019-03-12T17:40:35.371Z,3.00
2019-03-12T17:43:03.497Z,2.57
2019-03-12T17:45:30.325Z,2.28
2019-03-12T17:47:57.059Z,2.00
2019-03-12T17:50:25.532Z,1.81
2019-03-12T17:52:52.438Z,1.68
2019-03-12T17:55:19.387Z,1.47
2019-03-12T17:57:46.278Z,1.42
2019-03-12T18:00:19.612Z,1.35
2019-03-12T18:02:46.414Z,1.39
2019-03-12T18:05:15.441Z,1.15
2019-03-12T18:07:43.017Z,1.09
2019-03-12T18:10:12.874Z,1.05
2019-03-12T18:12:39.979Z,0.88
2019-03-12T18:15:12.673Z,0.89
2019-03-12T18:17:40.379Z,0.82
2019-03-12T18:20:11.857Z,0.62
2019-03-12T18:22:41.296Z,0.64
2019-03-12T18:26:04.266Z,0.65
2019-03-12T18:28:31.094Z,0.48
2019-03-12T18:31:02.881Z,0.50
2019-03-12T18:33:29.495Z,0.53
2019-03-12T18:35:56.198Z,0.28
2019-03-12T18:38:23.097Z,0.25
2019-03-12T18:40:51.914Z,0.24
2019-03-12T18:43:18.607Z,0.00
2019-03-12T18:45:48.410Z,-0.07
2019-03-12T18:48:17.450Z,0.02
2019-03-12T18:50:45.666Z,-0.12
2019-03-12T18:53:14.201Z,-0.21
2019-03-12T18:55:49.739Z,-0.18
2019-03-12T18:58:22.912Z,-0.07
2019-03-12T19:00:52.375Z,-0.12
2019-03-12T19:03:25.134Z,-0.05
2019-03-12T19:05:53.245Z,-0.19
2019-03-12T19:08:23.425Z,-0.20
2019-03-12T19:10:50.503Z,-0.07
2019-03-12T19:13:20.881Z,-0.14
2019-03-12T19:15:50.808Z,-0.11
2019-03-12T19:18:20.308Z,-0.27
2019-03-12T19:20:50.349Z,-0.20
2019-03-12T19:23:19.856Z,-0.40
2019-03-12T19:25:47.837Z,-0.56
2019-03-12T19:28:14.761Z,-0.39
2019-03-12T19:30:43.990Z,-0.40
2019-03-12T19:33:14.619Z,-0.48
2019-03-12T19:35:42.167Z,-0.49
2019-03-12T19:38:11.082Z,-0.44
2019-03-12T19:40:40.838Z,-0.48
2019-03-12T19:43:07.984Z,-0.12
2019-03-12T19:45:35.304Z,-0.10
2019-03-12T19:48:05.955Z,-0.40
2019-03-12T19:50:34.444Z,-0.46
2019-03-12T19:53:01.508Z,-0.41
2019-03-12T19:55:31.820Z,-0.43
2019-03-12T19:57:59.996Z,-0.21
2019-03-12T20:00:28.694Z,-0.08
2019-03-12T20:03:10.323Z,0.06
2019-03-12T20:05:29.565Z,-0.43
2019-03-12T20:07:58.508Z,-0.30
2019-03-12T20:10:32.906Z,-0.54
2019-03-12T20:13:05.425Z,-0.50
2019-03-12T20:15:35.944Z,-0.43
2019-03-12T20:18:09.930Z,-0.61
2019-03-12T20:20:43.489Z,-0.67
2019-03-12T20:23:16.067Z,-0.67
2019-03-12T20:25:50.481Z,-0.67
2019-03-12T20:28:23.070Z,-0.43
2019-03-12T20:30:55.662Z,-0.64
2019-03-12T20:33:28.224Z,-0.95
2019-03-12T20:36:00.719Z,-0.59
2019-03-12T20:38:36.388Z,-0.25
2019-03-12T20:41:11.786Z,-0.53
2019-03-12T20:43:44.293Z,-0.63
2019-03-12T20:46:17.045Z,-0.32
2019-03-12T20:48:49.621Z,-0.59
2019-03-12T20:51:22.225Z,-0.64
2019-03-12T20:53:56.674Z,-0.47
2019-03-12T20:56:30.997Z,-0.54
2019-03-12T20:59:03.573Z,-0.83
2019-03-12T21:01:34.091Z,-0.82
2019-03-12T21:04:09.469Z,-0.32
2019-03-12T21:06:41.946Z,-0.29
2019-03-12T21:09:21.844Z,-0.23
2019-03-12T21:11:54.308Z,-0.46
2019-03-12T21:14:24.787Z,-0.73
2019-03-12T21:16:57.215Z,-0.56
2019-03-12T21:19:30.270Z,-0.65
2019-03-12T21:22:04.109Z,-0.58
2019-03-12T21:24:36.797Z,-0.45
2019-03-12T21:27:10.562Z,-0.83
2019-03-12T21:29:41.329Z,-0.60
2019-03-12T21:32:09.805Z,-0.58
2019-03-12T21:34:40.393Z,-0.84
2019-03-12T21:37:07.388Z,-0.58
2019-03-12T21:39:34.402Z,-0.68
2019-03-12T21:42:01.427Z,-0.57
2019-03-12T21:44:28.408Z,-0.42
2019-03-12T21:46:55.353Z,-0.61
2019-03-12T21:49:22.280Z,-0.44
2019-03-12T21:51:49.023Z,-0.50
2019-03-12T21:54:16.024Z,-0.70
2019-03-12T21:56:42.799Z,-0.70
2019-03-12T21:59:09.700Z,-0.61
2019-03-12T22:01:36.407Z,-0.49
2019-03-12T22:04:03.303Z,-0.46
2019-03-12T22:06:29.928Z,-0.44
2019-03-12T22:08:56.525Z,-0.46
2019-03-12T22:11:23.093Z,-0.42
2019-03-12T22:13:49.687Z,-0.31
2019-03-12T22:16:17.593Z,-0.24
2019-03-12T22:18:44.313Z,-0.37
2019-03-12T22:21:11.675Z,-0.53
2019-03-12T22:23:40.210Z,-0.28
2019-03-12T22:26:06.800Z,-0.19
2019-03-12T22:28:33.424Z,-0.38
2019-03-12T22:31:00.226Z,-0.41
2019-03-12T22:33:27.003Z,-0.25
2019-03-12T22:35:54.743Z,-0.31
2019-03-12T22:38:21.343Z,-0.30
2019-03-12T22:40:48.165Z,-0.61
2019-03-12T22:43:15.280Z,-0.65
2019-03-12T22:45:41.850Z,-0.57
2019-03-12T22:48:08.676Z,-0.71
2019-03-12T22:50:35.953Z,-0.68
2019-03-12T22:53:02.850Z,-0.49
2019-03-12T22:55:29.453Z,-0.42
2019-03-12T22:57:56.160Z,-0.59
2019-03-12T23:00:27.484Z,-0.67
2019-03-12T23:02:56.176Z,-0.73
2019-03-12T23:05:24.754Z,-0.74
2019-03-12T23:07:54.236Z,-0.78
2019-03-12T23:10:21.716Z,-0.73
2019-03-12T23:12:49.284Z,-0.78
2019-03-12T23:15:18.463Z,-0.77
2019-03-12T23:17:45.544Z,-0.73
2019-03-12T23:20:17.804Z,-0.64
2019-03-12T23:22:44.659Z,-0.75
2019-03-12T23:25:11.854Z,-0.95
2019-03-12T23:27:40.476Z,-0.79
2019-03-12T23:30:12.614Z,-0.77
2019-03-12T23:32:39.359Z,-0.66
2019-03-12T23:35:07.700Z,-0.69
2019-03-12T23:37:34.429Z,-0.59
2019-03-12T23:40:01.552Z,-0.59
2019-03-12T23:42:28.516Z,-0.66
2019-03-12T23:44:55.193Z,-0.63
2019-03-12T23:47:22.060Z,-0.65
2019-03-12T23:49:48.755Z,-0.63
2019-03-12T23:52:15.839Z,-0.34
2019-03-12T23:54:42.637Z,-0.52
2019-03-12T23:57:09.730Z,-0.55
2019-03-12T23:59:37.543Z,-0.60
